sensor_id;sensor_type;location;lat;lon;timestamp;pressure;altitude;pressure_sealevel;temperature;humidity
68193;BME280;55012;47.562;18.414;2024-02-26T00:02:07;99389.56;;;8.08;100.00
68193;BME280;55012;47.562;18.414;2024-02-26T00:04:33;99392.72;;;8.10;100.00
68193;BME280;55012;47.562;18.414;2024-02-26T00:06:58;99399.06;;;8.14;100.00
68193;BME280;55012;47.562;18.414;2024-02-26T00:09:23;99389.88;;;8.15;100.00
68193;BME280;55012;47.562;18.414;2024-02-26T00:11:49;99397.00;;;8.20;100.00
68193;BME280;55012;47.562;18.414;2024-02-26T00:14:14;99405.66;;;8.25;100.00
68193;BME280;55012;47.562;18.414;2024-02-26T00:16:40;99405.47;;;8.30;100.00
68193;BME280;55012;47.562;18.414;2024-02-26T00:19:06;99404.22;;;8.36;100.00
68193;BME280;55012;47.562;18.414;2024-02-26T00:21:32;99412.56;;;8.43;100.00
68193;BME280;55012;47.562;18.414;2024-02-26T00:23:57;99413.50;;;8.48;100.00
68193;BME280;55012;47.562;18.414;2024-02-26T00:26:22;99417.59;;;8.54;100.00
68193;BME280;55012;47.562;18.414;2024-02-26T00:28:48;99416.28;;;8.60;100.00
68193;BME280;55012;47.562;18.414;2024-02-26T00:31:13;99418.66;;;8.61;100.00
68193;BME280;55012;47.562;18.414;2024-02-26T00:33:38;99414.19;;;8.65;100.00
68193;BME280;55012;47.562;18.414;2024-02-26T00:36:04;99414.63;;;8.67;100.00
68193;BME280;55012;47.562;18.414;2024-02-26T00:38:30;99413.41;;;8.65;100.00
68193;BME280;55012;47.562;18.414;2024-02-26T00:40:55;99407.88;;;8.61;100.00
68193;BME280;55012;47.562;18.414;2024-02-26T00:43:20;99405.38;;;8.56;100.00
68193;BME280;55012;47.562;18.414;2024-02-26T00:45:46;99400.16;;;8.51;100.00
68193;BME280;55012;47.562;18.414;2024-02-26T00:48:12;99400.47;;;8.50;100.00
68193;BME280;55012;47.562;18.414;2024-02-26T00:50:39;99393.06;;;8.47;100.00
68193;BME280;55012;47.562;18.414;2024-02-26T00:53:04;99389.13;;;8.44;100.00
68193;BME280;55012;47.562;18.414;2024-02-26T00:55:29;99397.38;;;8.39;100.00
68193;BME280;55012;47.562;18.414;2024-02-26T00:57:55;99389.13;;;8.35;100.00
68193;BME280;55012;47.562;18.414;2024-02-26T01:00:20;99397.06;;;8.40;100.00
68193;BME280;55012;47.562;18.414;2024-02-26T01:02:46;99392.31;;;8.37;100.00
68193;BME280;55012;47.562;18.414;2024-02-26T01:05:12;99387.06;;;8.32;100.00
68193;BME280;55012;47.562;18.414;2024-02-26T01:07:37;99373.00;;;8.27;100.00
68193;BME280;55012;47.562;18.414;2024-02-26T01:10:03;99368.13;;;8.20;100.00
68193;BME280;55012;47.562;18.414;2024-02-26T01:12:29;99360.41;;;8.10;100.00
68193;BME280;55012;47.562;18.414;2024-02-26T01:14:55;99356.97;;;8.01;100.00
68193;BME280;55012;47.562;18.414;2024-02-26T01:17:20;99350.50;;;7.93;100.00
68193;BME280;55012;47.562;18.414;2024-02-26T01:19:45;99347.22;;;7.87;100.00
68193;BME280;55012;47.562;18.414;2024-02-26T01:22:11;99353.09;;;7.81;100.00
68193;BME280;55012;47.562;18.414;2024-02-26T01:24:36;99355.16;;;7.75;100.00
68193;BME280;55012;47.562;18.414;2024-02-26T01:27:02;99352.81;;;7.74;100.00
68193;BME280;55012;47.562;18.414;2024-02-26T01:29:27;99360.88;;;7.74;100.00
68193;BME280;55012;47.562;18.414;2024-02-26T01:31:52;99369.09;;;7.77;100.00
68193;BME280;55012;47.562;18.414;2024-02-26T01:34:18;99376.53;;;7.80;100.00
68193;BME280;55012;47.562;18.414;2024-02-26T01:36:43;99376.22;;;7.82;100.00
68193;BME280;55012;47.562;18.414;2024-02-26T01:39:09;99360.84;;;7.82;100.00
68193;BME280;55012;47.562;18.414;2024-02-26T01:41:38;99362.44;;;7.83;100.00
68193;BME280;55012;47.562;18.414;2024-02-26T01:44:03;99379.69;;;7.82;100.00
68193;BME280;55012;47.562;18.414;2024-02-26T01:46:29;99376.09;;;7.78;100.00
68193;BME280;55012;47.562;18.414;2024-02-26T01:48:55;99381.47;;;7.78;100.00
68193;BME280;55012;47.562;18.414;2024-02-26T01:51:21;99389.69;;;7.82;100.00
68193;BME280;55012;47.562;18.414;2024-02-26T01:53:47;99380.94;;;7.85;100.00
68193;BME280;55012;47.562;18.414;2024-02-26T01:56:14;99390.44;;;7.91;100.00
68193;BME280;55012;47.562;18.414;2024-02-26T01:58:41;99393.75;;;7.97;100.00
68193;BME280;55012;47.562;18.414;2024-02-26T02:01:07;99397.69;;;7.99;100.00
68193;BME280;55012;47.562;18.414;2024-02-26T02:03:32;99391.06;;;7.97;100.00
68193;BME280;55012;47.562;18.414;2024-02-26T02:05:58;99395.66;;;7.96;100.00
68193;BME280;55012;47.562;18.414;2024-02-26T02:08:24;99407.22;;;7.97;100.00
68193;BME280;55012;47.562;18.414;2024-02-26T02:10:50;99395.66;;;7.96;100.00
68193;BME280;55012;47.562;18.414;2024-02-26T02:13:16;99401.63;;;8.02;100.00
68193;BME280;55012;47.562;18.414;2024-02-26T02:15:41;99411.78;;;8.05;100.00
68193;BME280;55012;47.562;18.414;2024-02-26T02:18:07;99411.13;;;8.08;100.00
68193;BME280;55012;47.562;18.414;2024-02-26T02:20:33;99407.94;;;8.14;100.00
68193;BME280;55012;47.562;18.414;2024-02-26T02:22:59;99413.47;;;8.18;100.00
68193;BME280;55012;47.562;18.414;2024-02-26T02:25:24;99410.91;;;8.22;100.00
68193;BME280;55012;47.562;18.414;2024-02-26T02:27:50;99413.75;;;8.25;100.00
68193;BME280;55012;47.562;18.414;2024-02-26T02:30:17;99418.50;;;8.28;100.00
68193;BME280;55012;47.562;18.414;2024-02-26T02:32:42;99421.66;;;8.30;100.00
68193;BME280;55012;47.562;18.414;2024-02-26T02:35:08;99404.81;;;8.33;100.00
68193;BME280;55012;47.562;18.414;2024-02-26T02:37:34;99394.53;;;8.35;100.00
68193;BME280;55012;47.562;18.414;2024-02-26T02:39:59;99400.22;;;8.34;100.00
68193;BME280;55012;47.562;18.414;2024-02-26T02:42:26;99407.50;;;8.42;100.00
68193;BME280;55012;47.562;18.414;2024-02-26T02:44:51;99415.59;;;8.42;100.00
68193;BME280;55012;47.562;18.414;2024-02-26T02:47:16;99412.13;;;8.33;100.00
68193;BME280;55012;47.562;18.414;2024-02-26T02:49:42;99410.25;;;8.25;100.00
68193;BME280;55012;47.562;18.414;2024-02-26T02:52:07;99401.88;;;8.17;100.00
68193;BME280;55012;47.562;18.414;2024-02-26T02:54:33;99390.19;;;8.13;100.00
68193;BME280;55012;47.562;18.414;2024-02-26T02:56:58;99390.53;;;8.12;100.00
68193;BME280;55012;47.562;18.414;2024-02-26T02:59:23;99379.47;;;8.05;100.00
68193;BME280;55012;47.562;18.414;2024-02-26T03:01:49;99367.88;;;8.04;100.00
68193;BME280;55012;47.562;18.414;2024-02-26T03:04:14;99372.66;;;7.99;100.00
68193;BME280;55012;47.562;18.414;2024-02-26T03:06:40;99376.47;;;7.98;100.00
68193;BME280;55012;47.562;18.414;2024-02-26T03:09:05;99383.56;;;8.02;100.00
68193;BME280;55012;47.562;18.414;2024-02-26T03:11:30;99383.06;;;8.09;100.00
68193;BME280;55012;47.562;18.414;2024-02-26T03:13:56;99391.44;;;8.16;100.00
68193;BME280;55012;47.562;18.414;2024-02-26T03:16:21;99381.91;;;8.18;100.00
68193;BME280;55012;47.562;18.414;2024-02-26T03:18:46;99404.69;;;8.30;100.00
68193;BME280;55012;47.562;18.414;2024-02-26T03:21:12;99395.63;;;8.34;100.00
68193;BME280;55012;47.562;18.414;2024-02-26T03:23:37;99390.88;;;8.40;100.00
68193;BME280;55012;47.562;18.414;2024-02-26T03:26:03;99383.38;;;8.46;100.00
68193;BME280;55012;47.562;18.414;2024-02-26T03:28:29;99383.38;;;8.46;100.00
68193;BME280;55012;47.562;18.414;2024-02-26T03:30:56;99379.41;;;8.43;100.00
68193;BME280;55012;47.562;18.414;2024-02-26T03:33:21;99369.63;;;8.38;100.00
68193;BME280;55012;47.562;18.414;2024-02-26T03:35:47;99366.78;;;8.35;100.00
68193;BME280;55012;47.562;18.414;2024-02-26T03:38:13;99363.47;;;8.29;100.00
68193;BME280;55012;47.562;18.414;2024-02-26T03:40:38;99362.88;;;8.24;100.00
68193;BME280;55012;47.562;18.414;2024-02-26T03:43:03;99357.53;;;8.15;100.00
68193;BME280;55012;47.562;18.414;2024-02-26T03:45:32;99363.56;;;8.12;100.00
68193;BME280;55012;47.562;18.414;2024-02-26T03:47:57;99353.63;;;8.04;100.00
68193;BME280;55012;47.562;18.414;2024-02-26T03:50:22;99356.63;;;8.02;100.00
68193;BME280;55012;47.562;18.414;2024-02-26T03:52:48;99346.97;;;8.01;100.00
68193;BME280;55012;47.562;18.414;2024-02-26T03:55:13;99349.66;;;8.01;100.00
68193;BME280;55012;47.562;18.414;2024-02-26T03:57:39;99350.44;;;8.02;100.00
68193;BME280;55012;47.562;18.414;2024-02-26T04:00:04;99355.06;;;8.01;100.00
68193;BME280;55012;47.562;18.414;2024-02-26T04:02:31;99357.91;;;8.05;100.00
68193;BME280;55012;47.562;18.414;2024-02-26T04:04:56;99375.78;;;8.09;100.00
68193;BME280;55012;47.562;18.414;2024-02-26T04:07:22;99365.94;;;8.13;100.00
68193;BME280;55012;47.562;18.414;2024-02-26T04:09:47;99368.31;;;8.15;100.00
68193;BME280;55012;47.562;18.414;2024-02-26T04:12:13;99369.88;;;8.16;100.00
68193;BME280;55012;47.562;18.414;2024-02-26T04:14:38;99367.97;;;8.16;100.00
68193;BME280;55012;47.562;18.414;2024-02-26T04:17:04;99376.38;;;8.15;100.00
68193;BME280;55012;47.562;18.414;2024-02-26T04:19:29;99371.97;;;8.10;100.00
68193;BME280;55012;47.562;18.414;2024-02-26T04:21:55;99369.13;;;8.07;100.00
68193;BME280;55012;47.562;18.414;2024-02-26T04:24:20;99367.72;;;8.01;100.00
68193;BME280;55012;47.562;18.414;2024-02-26T04:26:45;99367.94;;;7.96;100.00
68193;BME280;55012;47.562;18.414;2024-02-26T04:29:11;99367.16;;;7.95;100.00
68193;BME280;55012;47.562;18.414;2024-02-26T04:31:37;99373.78;;;7.98;100.00
68193;BME280;55012;47.562;18.414;2024-02-26T04:34:03;99373.78;;;7.98;100.00
68193;BME280;55012;47.562;18.414;2024-02-26T04:36:28;99372.03;;;7.93;100.00
68193;BME280;55012;47.562;18.414;2024-02-26T04:38:53;99377.75;;;7.92;100.00
68193;BME280;55012;47.562;18.414;2024-02-26T04:41:22;99380.31;;;7.88;100.00
68193;BME280;55012;47.562;18.414;2024-02-26T04:43:47;99387.78;;;7.82;100.00
68193;BME280;55012;47.562;18.414;2024-02-26T04:46:13;99383.69;;;7.76;100.00
68193;BME280;55012;47.562;18.414;2024-02-26T04:48:38;99375.00;;;7.71;100.00
68193;BME280;55012;47.562;18.414;2024-02-26T04:51:04;99367.88;;;7.66;100.00
68193;BME280;55012;47.562;18.414;2024-02-26T04:53:30;99369.31;;;7.64;100.00
68193;BME280;55012;47.562;18.414;2024-02-26T04:55:55;99371.69;;;7.65;100.00
68193;BME280;55012;47.562;18.414;2024-02-26T04:58:21;99369.94;;;7.60;100.00
68193;BME280;55012;47.562;18.414;2024-02-26T05:00:46;99382.44;;;7.65;100.00
68193;BME280;55012;47.562;18.414;2024-02-26T05:03:11;99383.25;;;7.66;100.00
68193;BME280;55012;47.562;18.414;2024-02-26T05:05:39;99375.16;;;7.66;100.00
68193;BME280;55012;47.562;18.414;2024-02-26T05:08:05;99386.72;;;7.66;100.00
68193;BME280;55012;47.562;18.414;2024-02-26T05:10:30;99380.88;;;7.64;100.00
68193;BME280;55012;47.562;18.414;2024-02-26T05:12:55;99393.53;;;7.64;100.00
68193;BME280;55012;47.562;18.414;2024-02-26T05:15:21;99396.25;;;7.64;100.00
68193;BME280;55012;47.562;18.414;2024-02-26T05:17:46;99394.97;;;7.70;100.00
68193;BME280;55012;47.562;18.414;2024-02-26T05:20:11;99404.09;;;7.77;100.00
68193;BME280;55012;47.562;18.414;2024-02-26T05:22:37;99407.88;;;7.85;100.00
68193;BME280;55012;47.562;18.414;2024-02-26T05:25:03;99414.34;;;7.93;100.00
68193;BME280;55012;47.562;18.414;2024-02-26T05:27:28;99423.53;;;8.00;100.00
68193;BME280;55012;47.562;18.414;2024-02-26T05:29:54;99420.31;;;8.07;100.00
68193;BME280;55012;47.562;18.414;2024-02-26T05:32:19;99428.09;;;8.08;100.00
68193;BME280;55012;47.562;18.414;2024-02-26T05:34:44;99433.16;;;8.10;100.00
68193;BME280;55012;47.562;18.414;2024-02-26T05:37:10;99429.81;;;8.13;100.00
68193;BME280;55012;47.562;18.414;2024-02-26T05:39:35;99439.00;;;8.21;100.00
68193;BME280;55012;47.562;18.414;2024-02-26T05:42:00;99444.50;;;8.24;100.00
68193;BME280;55012;47.562;18.414;2024-02-26T05:44:26;99444.34;;;8.29;100.00
68193;BME280;55012;47.562;18.414;2024-02-26T05:46:52;99449.84;;;8.33;100.00
68193;BME280;55012;47.562;18.414;2024-02-26T05:49:18;99441.16;;;8.36;100.00
68193;BME280;55012;47.562;18.414;2024-02-26T05:51:43;99445.25;;;8.42;100.00
68193;BME280;55012;47.562;18.414;2024-02-26T05:54:09;99431.97;;;8.37;100.00
68193;BME280;55012;47.562;18.414;2024-02-26T05:56:35;99435.41;;;8.46;100.00
68193;BME280;55012;47.562;18.414;2024-02-26T05:59:00;99441.25;;;8.48;100.00
68193;BME280;55012;47.562;18.414;2024-02-26T06:01:26;99430.94;;;8.50;100.00
68193;BME280;55012;47.562;18.414;2024-02-26T06:03:51;99434.41;;;8.51;100.00
68193;BME280;55012;47.562;18.414;2024-02-26T06:06:17;99434.91;;;8.53;100.00
68193;BME280;55012;47.562;18.414;2024-02-26T06:08:43;99429.00;;;8.51;100.00
68193;BME280;55012;47.562;18.414;2024-02-26T06:11:08;99432.03;;;8.49;100.00
68193;BME280;55012;47.562;18.414;2024-02-26T06:13:34;99424.91;;;8.53;100.00
68193;BME280;55012;47.562;18.414;2024-02-26T06:16:00;99420.41;;;8.57;100.00
68193;BME280;55012;47.562;18.414;2024-02-26T06:18:25;99418.66;;;8.61;100.00
68193;BME280;55012;47.562;18.414;2024-02-26T06:20:50;99422.72;;;8.67;100.00
68193;BME280;55012;47.562;18.414;2024-02-26T06:23:16;99414.59;;;8.76;100.00
68193;BME280;55012;47.562;18.414;2024-02-26T06:25:41;99406.19;;;8.78;100.00
68193;BME280;55012;47.562;18.414;2024-02-26T06:28:08;99397.44;;;8.81;100.00
68193;BME280;55012;47.562;18.414;2024-02-26T06:30:34;99396.97;;;8.79;100.00
68193;BME280;55012;47.562;18.414;2024-02-26T06:32:59;99384.38;;;8.83;100.00
68193;BME280;55012;47.562;18.414;2024-02-26T06:35:25;99391.28;;;8.92;100.00
68193;BME280;55012;47.562;18.414;2024-02-26T06:37:50;99378.59;;;8.93;100.00
68193;BME280;55012;47.562;18.414;2024-02-26T06:40:18;99370.75;;;9.00;100.00
68193;BME280;55012;47.562;18.414;2024-02-26T06:42:45;99374.38;;;9.04;100.00
68193;BME280;55012;47.562;18.414;2024-02-26T06:45:10;99378.59;;;9.14;100.00
68193;BME280;55012;47.562;18.414;2024-02-26T06:47:36;99364.41;;;9.17;100.00
68193;BME280;55012;47.562;18.414;2024-02-26T06:50:01;99358.69;;;9.18;100.00
68193;BME280;55012;47.562;18.414;2024-02-26T06:52:26;99361.59;;;9.13;100.00
68193;BME280;55012;47.562;18.414;2024-02-26T06:54:52;99355.63;;;9.08;100.00
68193;BME280;55012;47.562;18.414;2024-02-26T06:57:21;99353.84;;;9.12;100.00
68193;BME280;55012;47.562;18.414;2024-02-26T06:59:46;99349.78;;;9.18;100.00
68193;BME280;55012;47.562;18.414;2024-02-26T07:02:13;99351.50;;;9.22;100.00
68193;BME280;55012;47.562;18.414;2024-02-26T07:04:38;99346.38;;;9.29;100.00
68193;BME280;55012;47.562;18.414;2024-02-26T07:07:04;99363.16;;;9.35;100.00
68193;BME280;55012;47.562;18.414;2024-02-26T07:09:29;99354.81;;;9.40;100.00
68193;BME280;55012;47.562;18.414;2024-02-26T07:11:55;99360.47;;;9.47;100.00
68193;BME280;55012;47.562;18.414;2024-02-26T07:14:20;99362.50;;;9.50;100.00
68193;BME280;55012;47.562;18.414;2024-02-26T07:16:45;99358.75;;;9.43;100.00
68193;BME280;55012;47.562;18.414;2024-02-26T07:19:11;99355.59;;;9.41;100.00
68193;BME280;55012;47.562;18.414;2024-02-26T07:21:36;99346.38;;;9.42;100.00
68193;BME280;55012;47.562;18.414;2024-02-26T07:24:02;99352.00;;;9.37;100.00
68193;BME280;55012;47.562;18.414;2024-02-26T07:26:27;99342.44;;;9.27;100.00
68193;BME280;55012;47.562;18.414;2024-02-26T07:28:55;99335.66;;;9.21;100.00
68193;BME280;55012;47.562;18.414;2024-02-26T07:31:20;99337.56;;;9.20;100.00
68193;BME280;55012;47.562;18.414;2024-02-26T07:33:46;99332.59;;;9.10;100.00
68193;BME280;55012;47.562;18.414;2024-02-26T07:36:11;99335.94;;;9.07;100.00
68193;BME280;55012;47.562;18.414;2024-02-26T07:38:37;99343.25;;;9.07;100.00
68193;BME280;55012;47.562;18.414;2024-02-26T07:41:02;99343.06;;;9.12;100.00
68193;BME280;55012;47.562;18.414;2024-02-26T07:43:28;99341.59;;;9.14;100.00
68193;BME280;55012;47.562;18.414;2024-02-26T07:45:53;99339.34;;;9.16;100.00
68193;BME280;55012;47.562;18.414;2024-02-26T07:48:18;99347.00;;;9.14;100.00
68193;BME280;55012;47.562;18.414;2024-02-26T07:50:44;99343.31;;;9.19;100.00
68193;BME280;55012;47.562;18.414;2024-02-26T07:53:09;99341.50;;;9.23;100.00
68193;BME280;55012;47.562;18.414;2024-02-26T07:55:35;99337.69;;;9.24;100.00
68193;BME280;55012;47.562;18.414;2024-02-26T07:58:00;99354.22;;;9.35;100.00
68193;BME280;55012;47.562;18.414;2024-02-26T08:00:26;99354.97;;;9.44;100.00
68193;BME280;55012;47.562;18.414;2024-02-26T08:02:51;99352.03;;;9.49;100.00
68193;BME280;55012;47.562;18.414;2024-02-26T08:05:16;99350.81;;;9.58;100.00
68193;BME280;55012;47.562;18.414;2024-02-26T08:07:42;99353.97;;;9.73;100.00
68193;BME280;55012;47.562;18.414;2024-02-26T08:10:08;99357.72;;;9.80;100.00
68193;BME280;55012;47.562;18.414;2024-02-26T08:12:33;99352.09;;;9.85;100.00
68193;BME280;55012;47.562;18.414;2024-02-26T08:14:59;99350.06;;;9.95;100.00
68193;BME280;55012;47.562;18.414;2024-02-26T08:17:25;99353.91;;;10.06;100.00
68193;BME280;55012;47.562;18.414;2024-02-26T08:19:50;99347.50;;;10.10;100.00
68193;BME280;55012;47.562;18.414;2024-02-26T08:22:16;99337.47;;;10.11;100.00
68193;BME280;55012;47.562;18.414;2024-02-26T08:24:43;99332.06;;;10.11;100.00
68193;BME280;55012;47.562;18.414;2024-02-26T08:27:08;99334.63;;;10.20;100.00
68193;BME280;55012;47.562;18.414;2024-02-26T08:29:34;99336.56;;;10.31;100.00
68193;BME280;55012;47.562;18.414;2024-02-26T08:31:59;99328.56;;;10.35;100.00
68193;BME280;55012;47.562;18.414;2024-02-26T08:34:25;99326.88;;;10.43;100.00
68193;BME280;55012;47.562;18.414;2024-02-26T08:36:50;99326.03;;;10.54;100.00
68193;BME280;55012;47.562;18.414;2024-02-26T08:39:16;99315.97;;;10.67;100.00
68193;BME280;55012;47.562;18.414;2024-02-26T08:41:43;99312.53;;;10.82;100.00
68193;BME280;55012;47.562;18.414;2024-02-26T08:44:09;99310.38;;;10.88;100.00
68193;BME280;55012;47.562;18.414;2024-02-26T08:46:34;99289.50;;;10.88;100.00
68193;BME280;55012;47.562;18.414;2024-02-26T08:49:00;99281.22;;;10.97;100.00
68193;BME280;55012;47.562;18.414;2024-02-26T08:51:25;99277.31;;;10.94;100.00
68193;BME280;55012;47.562;18.414;2024-02-26T08:53:50;99270.41;;;10.97;100.00
68193;BME280;55012;47.562;18.414;2024-02-26T08:56:16;99268.84;;;10.96;100.00
68193;BME280;55012;47.562;18.414;2024-02-26T08:58:43;99265.00;;;10.97;100.00
68193;BME280;55012;47.562;18.414;2024-02-26T09:01:08;99253.63;;;10.91;100.00
68193;BME280;55012;47.562;18.414;2024-02-26T09:03:34;99252.16;;;10.94;100.00
68193;BME280;55012;47.562;18.414;2024-02-26T09:05:59;99248.50;;;11.02;100.00
68193;BME280;55012;47.562;18.414;2024-02-26T09:08:25;99252.50;;;11.08;100.00
68193;BME280;55012;47.562;18.414;2024-02-26T09:10:50;99254.44;;;11.08;100.00
68193;BME280;55012;47.562;18.414;2024-02-26T09:13:16;99249.41;;;11.22;100.00
68193;BME280;55012;47.562;18.414;2024-02-26T09:15:41;99246.16;;;11.32;100.00
68193;BME280;55012;47.562;18.414;2024-02-26T09:18:06;99234.91;;;11.46;100.00
68193;BME280;55012;47.562;18.414;2024-02-26T09:20:32;99238.03;;;11.48;100.00
68193;BME280;55012;47.562;18.414;2024-02-26T09:22:57;99230.19;;;11.59;100.00
68193;BME280;55012;47.562;18.414;2024-02-26T09:25:22;99231.72;;;11.75;100.00
68193;BME280;55012;47.562;18.414;2024-02-26T09:27:48;99236.69;;;11.89;100.00
68193;BME280;55012;47.562;18.414;2024-02-26T09:30:13;99230.47;;;12.04;100.00
68193;BME280;55012;47.562;18.414;2024-02-26T09:32:39;99217.25;;;12.03;100.00
68193;BME280;55012;47.562;18.414;2024-02-26T09:35:06;99216.84;;;12.20;100.00
68193;BME280;55012;47.562;18.414;2024-02-26T09:37:31;99202.56;;;12.23;100.00
68193;BME280;55012;47.562;18.414;2024-02-26T09:39:57;99196.59;;;12.33;100.00
68193;BME280;55012;47.562;18.414;2024-02-26T09:42:25;99190.00;;;12.54;100.00
68193;BME280;55012;47.562;18.414;2024-02-26T09:44:53;99188.41;;;12.72;100.00
68193;BME280;55012;47.562;18.414;2024-02-26T09:47:21;99178.59;;;12.87;100.00
68193;BME280;55012;47.562;18.414;2024-02-26T09:49:48;99173.41;;;13.01;100.00
68193;BME280;55012;47.562;18.414;2024-02-26T09:52:15;99159.72;;;13.17;100.00
68193;BME280;55012;47.562;18.414;2024-02-26T09:54:41;99145.28;;;13.36;100.00
68193;BME280;55012;47.562;18.414;2024-02-26T09:57:09;99120.16;;;13.42;100.00
68193;BME280;55012;47.562;18.414;2024-02-26T09:59:39;99091.16;;;13.50;100.00
68193;BME280;55012;47.562;18.414;2024-02-26T10:02:09;99059.06;;;13.63;100.00
68193;BME280;55012;47.562;18.414;2024-02-26T10:04:36;99045.97;;;13.72;100.00
68193;BME280;55012;47.562;18.414;2024-02-26T10:07:02;99012.28;;;13.80;100.00
68193;BME280;55012;47.562;18.414;2024-02-26T10:09:30;98974.28;;;13.87;100.00
68193;BME280;55012;47.562;18.414;2024-02-26T10:11:57;98926.19;;;13.95;100.00
68193;BME280;55012;47.562;18.414;2024-02-26T10:14:22;98888.53;;;13.97;100.00
68193;BME280;55012;47.562;18.414;2024-02-26T10:16:49;98841.13;;;13.94;100.00
68193;BME280;55012;47.562;18.414;2024-02-26T10:19:28;98777.34;;;13.85;100.00
68193;BME280;55012;47.562;18.414;2024-02-26T10:21:58;98761.09;;;13.95;100.00
68193;BME280;55012;47.562;18.414;2024-02-26T10:24:25;98744.09;;;14.13;100.00
68193;BME280;55012;47.562;18.414;2024-02-26T10:26:54;98698.72;;;14.27;100.00
68193;BME280;55012;47.562;18.414;2024-02-26T10:29:21;98664.19;;;14.42;100.00
68193;BME280;55012;47.562;18.414;2024-02-26T10:31:46;98600.88;;;14.52;100.00
68193;BME280;55012;47.562;18.414;2024-02-26T10:34:12;98530.09;;;14.52;100.00
68193;BME280;55012;47.562;18.414;2024-02-26T10:36:38;98465.16;;;14.47;100.00
68193;BME280;55012;47.562;18.414;2024-02-26T10:39:06;98440.28;;;14.52;100.00
68193;BME280;55012;47.562;18.414;2024-02-26T10:41:33;98392.06;;;14.60;100.00
68193;BME280;55012;47.562;18.414;2024-02-26T10:43:59;98345.38;;;14.61;100.00
68193;BME280;55012;47.562;18.414;2024-02-26T10:46:25;98332.50;;;14.83;100.00
68193;BME280;55012;47.562;18.414;2024-02-26T10:48:52;98292.28;;;15.12;100.00
68193;BME280;55012;47.562;18.414;2024-02-26T10:51:26;98239.88;;;15.50;100.00
68193;BME280;55012;47.562;18.414;2024-02-26T10:53:55;98201.00;;;15.87;100.00
68193;BME280;55012;47.562;18.414;2024-02-26T10:56:24;98162.50;;;16.15;100.00
68193;BME280;55012;47.562;18.414;2024-02-26T10:58:51;98117.69;;;16.13;100.00
68193;BME280;55012;47.562;18.414;2024-02-26T11:01:18;98111.47;;;16.12;100.00
68193;BME280;55012;47.562;18.414;2024-02-26T11:03:44;98107.66;;;16.06;100.00
68193;BME280;55012;47.562;18.414;2024-02-26T11:06:12;98097.63;;;15.99;100.00
68193;BME280;55012;47.562;18.414;2024-02-26T11:08:38;98088.91;;;15.78;100.00
68193;BME280;55012;47.562;18.414;2024-02-26T11:11:04;98096.84;;;15.65;100.00
68193;BME280;55012;47.562;18.414;2024-02-26T11:13:30;98091.16;;;15.49;100.00
68193;BME280;55012;47.562;18.414;2024-02-26T11:15:56;98088.16;;;15.36;100.00
68193;BME280;55012;47.562;18.414;2024-02-26T11:18:26;98092.47;;;15.30;100.00
68193;BME280;55012;47.562;18.414;2024-02-26T11:20:54;98092.19;;;15.21;100.00
68193;BME280;55012;47.562;18.414;2024-02-26T11:23:22;98094.19;;;15.13;100.00
68193;BME280;55012;47.562;18.414;2024-02-26T11:25:50;98098.91;;;15.05;100.00
68193;BME280;55012;47.562;18.414;2024-02-26T11:28:18;98100.97;;;14.98;100.00
68193;BME280;55012;47.562;18.414;2024-02-26T11:30:47;98113.03;;;14.93;100.00
68193;BME280;55012;47.562;18.414;2024-02-26T11:33:14;98107.25;;;14.87;100.00
68193;BME280;55012;47.562;18.414;2024-02-26T11:35:40;98105.38;;;14.77;100.00
68193;BME280;55012;47.562;18.414;2024-02-26T11:38:05;98123.28;;;14.75;100.00
68193;BME280;55012;47.562;18.414;2024-02-26T11:40:33;98114.63;;;14.87;100.00
68193;BME280;55012;47.562;18.414;2024-02-26T11:42:59;98111.00;;;15.04;100.00
68193;BME280;55012;47.562;18.414;2024-02-26T11:48:25;98091.00;;;15.63;100.00
68193;BME280;55012;47.562;18.414;2024-02-26T11:50:54;98084.47;;;15.91;100.00
68193;BME280;55012;47.562;18.414;2024-02-26T11:53:27;98061.09;;;16.20;100.00
68193;BME280;55012;47.562;18.414;2024-02-26T11:58:41;98068.47;;;16.50;100.00
68193;BME280;55012;47.562;18.414;2024-02-26T12:04:11;98096.19;;;16.76;100.00
68193;BME280;55012;47.562;18.414;2024-02-26T12:06:54;98110.88;;;16.85;100.00
68193;BME280;55012;47.562;18.414;2024-02-26T12:09:40;98117.53;;;16.84;100.00
68193;BME280;55012;47.562;18.414;2024-02-26T12:12:10;98110.22;;;16.78;100.00
68193;BME280;55012;47.562;18.414;2024-02-26T12:14:53;98123.69;;;16.62;100.00
68193;BME280;55012;47.562;18.414;2024-02-26T12:17:23;98123.75;;;16.58;100.00
68193;BME280;55012;47.562;18.414;2024-02-26T12:19:49;98119.88;;;16.55;100.00
68193;BME280;55012;47.562;18.414;2024-02-26T12:22:15;98118.28;;;16.58;100.00
68193;BME280;55012;47.562;18.414;2024-02-26T12:24:42;98104.53;;;16.65;100.00
68193;BME280;55012;47.562;18.414;2024-02-26T12:27:07;98111.09;;;16.71;100.00
68193;BME280;55012;47.562;18.414;2024-02-26T12:29:32;98111.88;;;16.72;100.00
68193;BME280;55012;47.562;18.414;2024-02-26T12:31:58;98131.44;;;16.63;100.00
68193;BME280;55012;47.562;18.414;2024-02-26T12:34:24;98117.19;;;16.52;100.00
68193;BME280;55012;47.562;18.414;2024-02-26T12:36:49;98115.31;;;16.45;100.00
68193;BME280;55012;47.562;18.414;2024-02-26T12:39:14;98114.19;;;16.43;100.00
68193;BME280;55012;47.562;18.414;2024-02-26T12:41:40;98098.59;;;16.43;100.00
68193;BME280;55012;47.562;18.414;2024-02-26T12:44:07;98085.69;;;16.47;100.00
68193;BME280;55012;47.562;18.414;2024-02-26T12:46:33;98075.16;;;16.46;100.00
68193;BME280;55012;47.562;18.414;2024-02-26T12:49:01;98064.63;;;16.48;100.00